Racecast

Olivia Szczepanik

Temperance Bedford (MI) · 12 · SECMI D1MONROE · Compare head to head

Athlete rating 122.1 2024 XC season
Best race 121.0 XC
Races 48
Seasons 6 2018 — 2024

RankedNation #17146·MI #1898·MI D1 #1057·SEC #103·Team #28 ?

Rating scale ?

Cross Country

2024 XC 116.1

Temperance Bedford (MI) · Grade 12

Date Meet Event Result Place Rating Difficulty PR/SR Flags
2024-10-26 Lake Erie Metro Park OFFICIAL 5000m 22:35.1 43rd · 6th on team 120.7 +0.055 ★CR SR CSR RSR
2024-10-17 Hudson Mills Metropark - OFFICIAL 5000m 22:43.97 22nd · 1st on team 118.1 +0.036 SR CSR
2024-10-12 Munson Park 5000m 22:48.6 14th · 5th on team 119.7 +0.054 ★CR SR CSR RSR
2024-10-05 Portage West MS 5000m 23:09.1 80th · 1st on team 116.2 +0.038 SR CSR
2024-09-28 Lake Erie Metro Park OFFICIAL 5000m 23:35.7 6th · 2nd on team 115.6 +0.055 SR CSR
2024-09-24 Pioneer HS 5000m 24:19.2 58th · 9th on team 113.7 +0.067 CSR
2024-09-21 Ella Sharp Park OFFICIAL 5000m 24:04.7 227th · 10th on team 111.8 +0.038 CSR
2024-09-10 Willow Metropark OFFICIAL 5000m 24:06.3 65th · 4th on team 112.9 +0.048 ★CR CSR
2024-08-23 Ford Field/EE Ice Arena(LIVONIA) OFFICIAL 5000m 23:50.4 123rd · 7th on team 116.2 +0.070 ★CR SR CSR RSR

2023 XC 111.8

Temperance Bedford (MI) · Grade 11

Date Meet Event Result Place Rating Difficulty PR/SR Flags
2023-10-28 Lake Erie Metro Park OFFICIAL 5000m 23:03.6 50th · 7th on team 118.7 +0.055 CR SR CSR RSR
2023-10-19 Hudson Mills Metropark - OFFICIAL 5000m 23:48 46th · 7th on team 113.0 +0.036 CSR
2023-10-14 Munson Park 5000m 23:22.9 14th · 3rd on team 117.8 +0.054 CR CSR
2023-09-30 Lake Erie Metro Park OFFICIAL 5000m 23:12.4 39th · 7th on team 118.4 +0.055 CR SR CSR RSR
2023-09-27 Saline High School 5000m 23:58.1 56th · 8th on team 112.6 +0.039 ★CR CSR
2023-09-23 Ella Sharp Park OFFICIAL 5000m 23:37.1 216th · 5th on team 115.3 +0.038 ★CR SR CSR RSR
2023-09-16 Ottawa Park Golf Course 5000m 24:15.9 71st · 7th on team 104.0 -0.030 ★CR SR CSR
2023-09-13 Indian Creek OFFICIAL 5000m 24:40.6 73rd · 7th on team 109.4 +0.039 ★CR SR CSR
2023-09-09 Hedges Boyer Park 5000m 25:18.9 108th · 3rd on team 98.4 -0.036 CSR
2023-08-18 Ford Field/EE Ice Arena(LIVONIA) OFFICIAL 5000m 25:01.3 119th · 10th on team 110.6 +0.070 CR SR CSR RSR

2022 XC 113.5

Temperance Bedford (MI) · Grade 10

Date Meet Event Result Place Rating Difficulty PR/SR Flags
2022-10-29 Milan HS OFFICIAL 5000m 22:37.8 34th · 3rd on team 121.0 +0.054 ★CR ★R CSR RSR
2022-10-20 Hudson Mills Metropark - OFFICIAL 5000m 22:20.6 34th · 3rd on team 120.1 +0.036 ★PR ★CR R SR CSR RSR
2022-10-08 Portage West MS 5000m 22:46.8 79th · 2nd on team 118.1 +0.038 PR ★CR SR CSR RSR
2022-09-28 Pioneer HS 5000m 23:33.6 51st · 4th on team 117.4 +0.067 PR ★CR SR CSR RSR
2022-09-14 Ella Sharp Park OFFICIAL 5000m 25:31.8 91st · 9th on team 106.8 +0.038 CR CSR RSR
2022-09-10 Hedges Boyer Park 5000m 23:57.2 44th · 1st on team 105.8 -0.036 PR ★CR SR CSR RSR
2022-08-27 Defiance High School 5000m 24:16.9 68th · 10th on team 105.3 -0.018 PR ★CR SR CSR RSR

2020 XC 117.1

Temperance Bedford (MI) · Grade 8

Date Meet Event Result Place Rating Difficulty PR/SR Flags
2020-10-14 Indian Creek OFFICIAL 3200m 16:25.4 22nd · 14th on team 116.0 +0.038
2020-10-07 Hudson Mills Metropark - OFFICIAL 3218m 17:27.2 22nd · 10th on team 115.4 +0.062 CSR
2020-09-24 Indian Creek OFFICIAL 3200m 16:23 15th · 10th on team 118.7 +0.038 SR CSR RSR
2020-09-16 Rolling Hills 3218m 17:18.2 17th · 14th on team 118.3 +0.077 ★CR SR CSR RSR

2019 XC 113.8

Temperance Bedford (MI) · Grade 7

Date Meet Event Result Place Rating Difficulty PR/SR Flags
2019-10-19 Huron Meadows Metropark OFFICIAL 3200m 15:55.4 88th · 6th on team 119.1 +0.031 ★PR ★CR SR CSR
2019-10-12 Munson Park 3200m 16:55.5 68th · 15th on team 112.7 +0.034 CSR
2019-10-09 Indian Creek OFFICIAL 3200m 16:12 33rd · 7th on team 118.5 +0.038 PR ★CR SR CSR
2019-09-28 Lake Erie Metro Park OFFICIAL 3218m 17:15.9 102nd · 17th on team 110.2 +0.034 ★CR CSR
2019-09-24 Hudson Mills Metropark - OFFICIAL 3218m 16:44.9 28th · 9th on team 119.1 +0.062 ★PR ★CR R SR CSR RSR
2019-09-14 Ottawa Park Golf Course 3200m 17:18.7 60th · 20th on team 102.9 -0.037 ★CR SR CSR RSR

2018 XC 107.0

Temperance Bedford (MI) · Grade 6

Date Meet Event Result Place Rating Difficulty PR/SR Flags
2018-10-13 Munson Park 3200m 16:45.5 72nd · 29th on team 112.5 +0.034 PR ★CR R SR CSR RSR
2018-10-10 Saline High School 3200m 17:13.4 44th · 16th on team 110.2 +0.016 PR ★CR SR CSR
2018-10-06 Munson Park 3218m 17:40.7 69th · 25th on team 109.1 +0.034 ★CR CSR
2018-09-25 Hudson Mills Metropark - OFFICIAL 3218m 18:11.3 34th · 15th on team 107.4 +0.062 CR CSR
2018-09-15 Ottawa Park Golf Course 3200m 17:40.7 47th · 23rd on team 101.0 -0.037 PR CR SR CSR
2018-09-12 Tecumseh HS 3218m 16:56.3 42nd · 19th on team 112.0 +0.036 PR ★CR R SR CSR RSR
2018-08-30 Eastwood HS 3200m 17:57 88th · 19th on team 96.4 -0.060 PR ★CR R SR CSR RSR

Track & Field

2019 TF 90.0

Temperance Bedford (MI) · Grade 6

Date Meet Event Result Place Rating Difficulty PR/SR Flags
2019-05-13 Lincoln MS @ Bedford MS 400m 1:44.54 14th · 8th on team -0.033
2019-05-13 Lincoln MS @ Bedford MS 800m 3:38.8 10th · 6th on team 92.5 -0.033 ★PR SR RSR
2019-05-06 Ypsilanti MS @ Bedford 400m 1:40.22 8th · 6th on team -0.033 ★PR SR
2019-05-06 Ypsilanti MS @ Bedford 800m 3:40.36 5th · 5th on team 91.2 -0.033 PR SR RSR
2019-04-22 SEC-MS: Adrian @ Bedford 800m 3:52.04 6th · 4th on team 86.4 -0.033 PR SR RSR